Hdms Esbern Snare — OUFB — position and weather

sailwx.info

Track history (hours):
 
Tides and Currents Weather Stations Pressure Air Temp Water Temp Dewpoint Dewpoint Depression Visibility Wind Speed Wind Dir Waves Ship Positions

Hdms Esbern Snare

Last reported at 2017-Sep-22 00:12 UTC. Time now 2017-Sep-24 16:09 UTC.
Position N 50°29' W 000°09'.

Length 137 m.

Type: Military. MMSI: 36699999.

Date/timePositionNaut miles runAvg speedWind from/ knotsBaromVisibWave heightAir tempDewpointWater temp
2017-Sep-22 00:12N 50°29' W 000°09'422.6
2017-Sep-22 00:01N 50°30' W 000°02'2221.7
2017-Sep-21 22:59N 50°37' E 000°31'1020.7
2017-Sep-21 22:31N 50°42' E 000°45'3021.7
2017-Sep-21 21:07N 51°01' E 001°22'324.2
2017-Sep-21 21:00N 51°03' E 001°25'1225.1
2017-Sep-21 20:31N 51°10' E 001°41'1224.0
2017-Sep-21 20:01N 51°20' E 001°52'1223.4
2017-Sep-21 19:30N 51°30' E 002°02'1222.7
2017-Sep-21 18:58N 51°39' E 002°15'44220.6
2017-Sep-20 21:33N 57°41' E 009°33'1023.3
2017-Sep-20 21:07N 57°44' E 009°51'1923.0
2017-Sep-20 20:18N 57°48' E 010°26'722.9
2017-Sep-20 20:00N 57°49' E 010°38'918.2
2017-Sep-20 19:29N 57°42' E 010°51'918.0
2017-Sep-20 19:01N 57°34' E 010°45'  
2017-Sep-17 06:54N 56°07' E 010°21'2 1.7
2017-Sep-17 05:52N 56°08' E 010°18'0 0.3
2017-Sep-17 05:28N 56°08' E 010°18'5710.6
2017-Sep-17 00:07N 55°17' E 011°04'316.4
2017-Sep-16 23:56N 55°14' E 011°06'1315.6
2017-Sep-16 23:07N 55°02' E 011°02'215.6
2017-Sep-16 22:59N 54°60' E 011°02'715.3
2017-Sep-16 22:30N 54°54' E 010°54'816.1
2017-Sep-16 22:00N 54°46' E 010°53'815.5
2017-Sep-16 21:30N 54°39' E 010°45'816.1
2017-Sep-16 21:00N 54°37' E 010°32'2 3.3
2017-Sep-16 20:30N 54°38' E 010°29'4 3.9
2017-Sep-16 19:21N 54°40' E 010°36'3 7.5
2017-Sep-16 19:01N 54°39' E 010°32'2 4.8
2017-Sep-16 18:30N 54°39' E 010°36'5 4.0
2017-Sep-16 17:15N 54°38' E 010°45'2 7.1
2017-Sep-16 17:00N 54°39' E 010°47'4 7.0
2017-Sep-16 16:30N 54°43' E 010°50'3 6.8
2017-Sep-16 16:00N 54°39' E 010°52'5 9.7
2017-Sep-16 15:30N 54°37' E 010°59'510.3
2017-Sep-16 15:00N 54°36' E 011°08'510.9
2017-Sep-16 14:30N 54°35' E 011°16'611.6
2017-Sep-16 14:00N 54°32' E 011°25'4 8.7
2017-Sep-16 13:31N 54°28' E 011°30'1611.1
2017-Sep-16 12:03N 54°25' E 011°57'115.5
2017-Sep-16 12:01N 54°26' E 011°58'714.9
2017-Sep-16 11:31N 54°28' E 012°10'713.9
2017-Sep-16 11:01N 54°35' E 012°14'12349.3
2017-Sep-16 08:31N 55°43' E 015°12'022.5
2017-Sep-16 08:30N 55°43' E 015°12'9871.4
2017-Sep-16 07:08N 54°59' E 012°36'412.3
2017-Sep-16 06:50N 54°56' E 012°36'5410.1
2017-Sep-16 01:29N 54°59' E 014°11'715.8
2017-Sep-16 01:00N 55°03' E 014°22'816.1
2017-Sep-16 00:31N 55°10' E 014°30'815.8
2017-Sep-16 00:01N 55°16' E 014°37'815.2
2017-Sep-15 23:29N 55°21' E 014°48'612.8
2017-Sep-15 23:01N 55°20' E 014°59'713.6
2017-Sep-15 22:30N 55°14' E 015°04'3 6.5
2017-Sep-15 22:00N 55°11' E 015°02'38 5.2
2017-Sep-15 14:45N 55°48' E 015°19'1 5.9
2017-Sep-15 14:30N 55°49' E 015°18'2 3.0
2017-Sep-15 14:00N 55°51' E 015°18'2 4.6
2017-Sep-15 13:30N 55°49' E 015°15'4 7.9
2017-Sep-15 13:00N 55°51' E 015°09'713.4
2017-Sep-15 12:30N 55°46' E 015°01'4 7.4
2017-Sep-15 12:00N 55°43' E 014°58'1 0.8
2017-Sep-15 11:09N 55°42' E 014°57'1 3.4
2017-Sep-15 11:00N 55°42' E 014°57'9 0.2
2017-Sep-13 07:44N 55°48' E 014°46'  
Track history (hours):
 
Tides and Currents Weather Stations Pressure Air Temp Water Temp Dewpoint Dewpoint Depression Visibility Wind Speed Wind Dir Waves Ship Positions

Hdms Esbern Snare

Last reported at 2017-Sep-22 00:12 UTC. Time now 2017-Sep-24 16:09 UTC.
Position N 50°29' W 000°09'.

Length 137 m.

Type: Military. MMSI: 36699999.

Date/timePositionNaut miles runAvg speedWind from/ knotsBaromVisibWave heightAir tempDewpointWater temp
2017-Sep-22 00:12N 50°29' W 000°09'422.6
2017-Sep-22 00:01N 50°30' W 000°02'2221.7
2017-Sep-21 22:59N 50°37' E 000°31'1020.7
2017-Sep-21 22:31N 50°42' E 000°45'3021.7
2017-Sep-21 21:07N 51°01' E 001°22'324.2
2017-Sep-21 21:00N 51°03' E 001°25'1225.1
2017-Sep-21 20:31N 51°10' E 001°41'1224.0
2017-Sep-21 20:01N 51°20' E 001°52'1223.4
2017-Sep-21 19:30N 51°30' E 002°02'1222.7
2017-Sep-21 18:58N 51°39' E 002°15'44220.6
2017-Sep-20 21:33N 57°41' E 009°33'1023.3
2017-Sep-20 21:07N 57°44' E 009°51'1923.0
2017-Sep-20 20:18N 57°48' E 010°26'722.9
2017-Sep-20 20:00N 57°49' E 010°38'918.2
2017-Sep-20 19:29N 57°42' E 010°51'918.0
2017-Sep-20 19:01N 57°34' E 010°45'  
2017-Sep-17 06:54N 56°07' E 010°21'2 1.7
2017-Sep-17 05:52N 56°08' E 010°18'0 0.3
2017-Sep-17 05:28N 56°08' E 010°18'5710.6
2017-Sep-17 00:07N 55°17' E 011°04'316.4
2017-Sep-16 23:56N 55°14' E 011°06'1315.6
2017-Sep-16 23:07N 55°02' E 011°02'215.6
2017-Sep-16 22:59N 54°60' E 011°02'715.3
2017-Sep-16 22:30N 54°54' E 010°54'816.1
2017-Sep-16 22:00N 54°46' E 010°53'815.5
2017-Sep-16 21:30N 54°39' E 010°45'816.1
2017-Sep-16 21:00N 54°37' E 010°32'2 3.3
2017-Sep-16 20:30N 54°38' E 010°29'4 3.9
2017-Sep-16 19:21N 54°40' E 010°36'3 7.5
2017-Sep-16 19:01N 54°39' E 010°32'2 4.8
2017-Sep-16 18:30N 54°39' E 010°36'5 4.0
2017-Sep-16 17:15N 54°38' E 010°45'2 7.1
2017-Sep-16 17:00N 54°39' E 010°47'4 7.0
2017-Sep-16 16:30N 54°43' E 010°50'3 6.8
2017-Sep-16 16:00N 54°39' E 010°52'5 9.7
2017-Sep-16 15:30N 54°37' E 010°59'510.3
2017-Sep-16 15:00N 54°36' E 011°08'510.9
2017-Sep-16 14:30N 54°35' E 011°16'611.6
2017-Sep-16 14:00N 54°32' E 011°25'4 8.7
2017-Sep-16 13:31N 54°28' E 011°30'1611.1
2017-Sep-16 12:03N 54°25' E 011°57'115.5
2017-Sep-16 12:01N 54°26' E 011°58'714.9
2017-Sep-16 11:31N 54°28' E 012°10'713.9
2017-Sep-16 11:01N 54°35' E 012°14'12349.3
2017-Sep-16 08:31N 55°43' E 015°12'022.5
2017-Sep-16 08:30N 55°43' E 015°12'9871.4
2017-Sep-16 07:08N 54°59' E 012°36'412.3
2017-Sep-16 06:50N 54°56' E 012°36'5410.1
2017-Sep-16 01:29N 54°59' E 014°11'715.8
2017-Sep-16 01:00N 55°03' E 014°22'816.1
2017-Sep-16 00:31N 55°10' E 014°30'815.8
2017-Sep-16 00:01N 55°16' E 014°37'815.2
2017-Sep-15 23:29N 55°21' E 014°48'612.8
2017-Sep-15 23:01N 55°20' E 014°59'713.6
2017-Sep-15 22:30N 55°14' E 015°04'3 6.5
2017-Sep-15 22:00N 55°11' E 015°02'38 5.2
2017-Sep-15 14:45N 55°48' E 015°19'1 5.9
2017-Sep-15 14:30N 55°49' E 015°18'2 3.0
2017-Sep-15 14:00N 55°51' E 015°18'2 4.6
2017-Sep-15 13:30N 55°49' E 015°15'4 7.9
2017-Sep-15 13:00N 55°51' E 015°09'713.4
2017-Sep-15 12:30N 55°46' E 015°01'4 7.4
2017-Sep-15 12:00N 55°43' E 014°58'1 0.8
2017-Sep-15 11:09N 55°42' E 014°57'1 3.4
2017-Sep-15 11:00N 55°42' E 014°57'9 0.2
2017-Sep-13 07:44N 55°48' E 014°46'  

Dump ship's entire track history